Map

Track Data

SID SEASON NUMBER BASIN SUBBASIN NAME ISO_TIME NATURE LAT LON WMO_WIND WMO_PRES WMO_AGENCY TRACK_TYPE DIST2LAND LANDFALL IFLAG USA_AGENCY USA_ATCF_ID USA_LAT USA_LON USA_RECORD USA_STATUS USA_WIND USA_PRES USA_SSHS USA_R34_NE USA_R34_SE USA_R34_SW USA_R34_NW USA_R50_NE USA_R50_SE USA_R50_SW USA_R50_NW USA_R64_NE USA_R64_SE USA_R64_SW USA_R64_NW USA_POCI USA_ROCI USA_RMW USA_EYE TOKYO_LAT TOKYO_LON TOKYO_GRADE TOKYO_WIND TOKYO_PRES TOKYO_R50_DIR TOKYO_R50_LONG TOKYO_R50_SHORT TOKYO_R30_DIR TOKYO_R30_LONG TOKYO_R30_SHORT TOKYO_LAND CMA_LAT CMA_LON CMA_CAT CMA_WIND CMA_PRES HKO_LAT HKO_LON HKO_CAT HKO_WIND HKO_PRES NEWDELHI_LAT NEWDELHI_LON NEWDELHI_GRADE NEWDELHI_WIND NEWDELHI_PRES NEWDELHI_CI NEWDELHI_DP NEWDELHI_POCI REUNION_LAT REUNION_LON REUNION_TYPE REUNION_WIND REUNION_PRES REUNION_TNUM REUNION_CI REUNION_RMW REUNION_R34_NE REUNION_R34_SE REUNION_R34_SW REUNION_R34_NW REUNION_R50_NE REUNION_R50_SE REUNION_R50_SW REUNION_R50_NW REUNION_R64_NE REUNION_R64_SE REUNION_R64_SW REUNION_R64_NW BOM_LAT BOM_LON BOM_TYPE BOM_WIND BOM_PRES BOM_TNUM BOM_CI BOM_RMW BOM_R34_NE BOM_R34_SE BOM_R34_SW BOM_R34_NW BOM_R50_NE BOM_R50_SE BOM_R50_SW BOM_R50_NW BOM_R64_NE BOM_R64_SE BOM_R64_SW BOM_R64_NW BOM_ROCI BOM_POCI BOM_EYE BOM_POS_METHOD BOM_PRES_METHOD NADI_LAT NADI_LON NADI_CAT NADI_WIND NADI_PRES WELLINGTON_LAT WELLINGTON_LON WELLINGTON_WIND WELLINGTON_PRES DS824_LAT DS824_LON DS824_STAGE DS824_WIND DS824_PRES TD9636_LAT TD9636_LON TD9636_STAGE TD9636_WIND TD9636_PRES TD9635_LAT TD9635_LON TD9635_WIND TD9635_PRES TD9635_ROCI NEUMANN_LAT NEUMANN_LON NEUMANN_CLASS NEUMANN_WIND NEUMANN_PRES MLC_LAT MLC_LON MLC_CLASS MLC_WIND MLC_PRES USA_GUST BOM_GUST BOM_GUST_PER REUNION_GUST REUNION_GUST_PER USA_SEAHGT USA_SEARAD_NE USA_SEARAD_SE USA_SEARAD_SW USA_SEARAD_NW STORM_SPEED STORM_DIR
1912327N07142 1912 66 WP MM NOT_NAMED 1912-11-21 16:00:00 NR 7.20000 141.900 main 1068 1062 __________O___ -1 7.20000 141.900 7 14 287
1912327N07142 1912 66 WP MM NOT_NAMED 1912-11-21 18:00:00 NR 7.33610 141.464 main 1062 1058 __________P___ -1 7.33610 141.464 7 14 287
1912327N07142 1912 66 WP MM NOT_NAMED 1912-11-21 21:00:00 NR 7.53884 140.810 main 1059 1062 __________P___ -1 7.53884 140.810 7 14 287
1912327N07142 1912 66 WP MM NOT_NAMED 1912-11-22 00:00:00 NR 7.73897 140.160 main 1065 1053 __________P___ -1 7.73897 140.160 7 13 287
1912327N07142 1912 66 WP MM NOT_NAMED 1912-11-22 03:00:00 NR 7.93547 139.514 main 1053 1053 __________P___ -1 7.93547 139.514 7 13 287
1912327N07142 1912 66 WP MM NOT_NAMED 1912-11-22 04:00:00 NR 8.00000 139.300 main 1055 1051 __________O___ -1 8.00000 139.300 7 13 287
1912327N07142 1912 66 WP MM NOT_NAMED 1912-11-22 06:00:00 NR 8.12730 138.874 main 1051 1047 __________P___ -1 8.12730 138.874 7 13 287
1912327N07142 1912 66 WP MM NOT_NAMED 1912-11-22 09:00:00 NR 8.31224 138.236 main 1048 1045 __________P___ -1 8.31224 138.236 7 13 286
1912327N07142 1912 66 WP MM NOT_NAMED 1912-11-22 12:00:00 NR 8.48730 137.590 main 1054 1050 __________P___ -1 8.48730 137.590 7 13 285
1912327N07142 1912 66 WP MM NOT_NAMED 1912-11-22 15:00:00 NR 8.64939 136.927 main 1052 1060 __________P___ -1 8.64939 136.927 7 14 284
1912327N07142 1912 66 WP MM NOT_NAMED 1912-11-22 16:00:00 NR 8.70000 136.700 main 1060 1058 __________O___ -1 8.70000 136.700 7 14 282
1912327N07142 1912 66 WP MM NOT_NAMED 1912-11-22 18:00:00 NR 8.79729 136.228 main 1064 989 __________P___ -1 8.79729 136.228 7 14 281
1912327N07142 1912 66 WP MM NOT_NAMED 1912-11-22 21:00:00 NR 8.93075 135.502 main 989 914 __________P___ -1 8.93075 135.502 7 15 280
1912327N07142 1912 66 WP MM NOT_NAMED 1912-11-23 00:00:00 NR 9.05196 134.767 main 916 831 __________P___ -1 9.05196 134.767 7 15 279
1912327N07142 1912 66 WP MM NOT_NAMED 1912-11-23 03:00:00 NR 9.16408 134.039 main 831 810 __________P___ -1 9.16408 134.039 7 15 279
1912327N07142 1912 66 WP MM NOT_NAMED 1912-11-23 04:00:00 NR 9.20000 133.800 main 810 758 __________O___ -1 9.20000 133.800 7 14 278
1912327N07142 1912 66 WP MM NOT_NAMED 1912-11-23 06:00:00 NR 9.26405 133.344 main 758 694 __________P___ -1 9.26405 133.344 7 14 278
1912327N07142 1912 66 WP MM NOT_NAMED 1912-11-23 09:00:00 NR 9.35395 132.672 main 697 624 __________P___ -1 9.35395 132.672 7 13 278
1912327N07142 1912 66 WP MM NOT_NAMED 1912-11-23 12:00:00 NR 9.44763 132.004 main 624 556 __________P___ -1 9.44763 132.004 7 13 279
1912327N07142 1912 66 WP MM NOT_NAMED 1912-11-23 15:00:00 NR 9.55759 131.329 main 556 534 __________P___ -1 9.55759 131.329 7 14 280
1912327N07142 1912 66 WP MM NOT_NAMED 1912-11-23 16:00:00 NR 9.60000 131.100 main 534 482 __________O___ -1 9.60000 131.100 4 14 282
1912327N07142 1912 66 WP MM NOT_NAMED 1912-11-23 18:00:00 NR 9.70726 130.623 main 482 413 __________P___ -1 9.70726 130.623 4 15 284
1912327N07142 1912 66 WP MM NOT_NAMED 1912-11-23 21:00:00 NR 9.88738 129.895 main 413 344 __________P___ -1 9.88738 129.895 4 15 284
1912327N07142 1912 66 WP MM NOT_NAMED 1912-11-24 00:00:00 NR 10.0738 129.162 main 344 266 __________P___ -1 10.0738 129.162 4 15 284
1912327N07142 1912 66 WP MM NOT_NAMED 1912-11-24 03:00:00 NR 10.2479 128.437 main 266 251 __________P___ -1 10.2479 128.437 4 15 283
1912327N07142 1912 66 WP MM NOT_NAMED 1912-11-24 04:00:00 NR 10.3000 128.200 main 251 211 __________O___ -1 10.3000 128.200 4 14 280
1912327N07142 1912 66 WP MM NOT_NAMED 1912-11-24 06:00:00 NR 10.3728 127.741 main 211 152 __________P___ -1 10.3728 127.741 4 14 278
1912327N07142 1912 66 WP MM NOT_NAMED 1912-11-24 09:00:00 NR 10.4633 127.065 main 152 79 __________P___ -1 10.4633 127.065 4 13 278
1912327N07142 1912 66 WP MM NOT_NAMED 1912-11-24 12:00:00 NR 10.5506 126.396 main 79 35 __________P___ -1 10.5506 126.396 4 13 278
1912327N07142 1912 66 WP MM NOT_NAMED 1912-11-24 15:00:00 NR 10.6567 125.726 main 35 34 __________P___ -1 10.6567 125.726 4 13 280
1912327N07142 1912 66 WP MM NOT_NAMED 1912-11-24 16:00:00 NR 10.7000 125.500 main 34 0 __________O___ -1 10.7000 125.500 4 14 282
1912327N07142 1912 66 WP MM NOT_NAMED 1912-11-24 18:00:00 NR 10.8025 125.031 main 0 0 __________P___ -1 10.8025 125.031 4 14 284
1912327N07142 1912 66 WP MM NOT_NAMED 1912-11-24 21:00:00 NR 10.9814 124.321 main 10 0 __________P___ -1 10.9814 124.321 4 14 285
1912327N07142 1912 66 WP MM NOT_NAMED 1912-11-25 00:00:00 NR 11.1877 123.615 main 32 0 __________P___ -1 11.1877 123.615 4 14 288
1912327N07142 1912 66 WP MM NOT_NAMED 1912-11-25 03:00:00 NR 11.4183 122.924 main 0 0 __________P___ -1 11.4183 122.924 4 14 289
1912327N07142 1912 66 WP MM NOT_NAMED 1912-11-25 04:00:00 NR 11.5000 122.700 main 0 0 __________O___ -1 11.5000 122.700 4 14 291
1912327N07142 1912 66 WP MM NOT_NAMED 1912-11-25 06:00:00 NR 11.6710 122.264 main 0 0 __________P___ -1 11.6710 122.264 4 14 293
1912327N07142 1912 66 WP MM NOT_NAMED 1912-11-25 09:00:00 NR 11.9469 121.628 main 24 0 __________P___ -1 11.9469 121.628 4 14 295
1912327N07142 1912 66 WP MM NOT_NAMED 1912-11-25 12:00:00 NR 12.2322 121.009 main 10 10 __________P___ -1 12.2322 121.009 4 13 295
1912327N07142 1912 66 WP MM NOT_NAMED 1912-11-25 15:00:00 NR 12.5111 120.401 main 48 48 __________P___ -1 12.5111 120.401 4 13 295
1912327N07142 1912 66 WP MM NOT_NAMED 1912-11-25 16:00:00 NR 12.6000 120.200 main 66 66 __________O___ -1 12.6000 120.200 4 13 293
1912327N07142 1912 66 WP MM NOT_NAMED 1912-11-25 18:00:00 NR 12.7584 119.794 main 86 86 __________P___ -1 12.7584 119.794 4 13 291
1912327N07142 1912 66 WP MM NOT_NAMED 1912-11-25 21:00:00 NR 12.9837 119.191 main 127 127 __________P___ -1 12.9837 119.191 4 13 291
1912327N07142 1912 66 WP MM NOT_NAMED 1912-11-26 00:00:00 NR 13.2024 118.594 main 185 185 __________P___ -1 13.2024 118.594 4 12 291
1912327N07142 1912 66 WP MM NOT_NAMED 1912-11-26 03:00:00 NR 13.4239 117.999 main 248 248 __________P___ -1 13.4239 117.999 4 12 291
1912327N07142 1912 66 WP MM NOT_NAMED 1912-11-26 04:00:00 NR 13.5000 117.800 main 270 270 __________O___ -1 13.5000 117.800 4 13 292
1912327N07142 1912 66 WP MM NOT_NAMED 1912-11-26 06:00:00 NR 13.6605 117.405 main 315 315 __________P___ -1 13.6605 117.405 4 13 293
1912327N07142 1912 66 WP MM NOT_NAMED 1912-11-26 09:00:00 NR 13.9079 116.813 main 369 369 __________P___ -1 13.9079 116.813 4 13 293
1912327N07142 1912 66 WP MM NOT_NAMED 1912-11-26 12:00:00 NR 14.1605 116.215 main 420 420 __________P___ -1 14.1605 116.215 4 13 293
1912327N07142 1912 66 WP MM NOT_NAMED 1912-11-26 15:00:00 NR 14.4152 115.607 main 475 475 __________P___ -1 14.4152 115.607 4 13 293
1912327N07142 1912 66 WP MM NOT_NAMED 1912-11-26 16:00:00 NR 14.5000 115.400 main 491 491 __________O___ -1 14.5000 115.400 2 13 293
1912327N07142 1912 66 WP MM NOT_NAMED 1912-11-26 18:00:00 NR 14.6690 114.981 main 524 535 __________P___ -1 14.6690 114.981 2 13 292
1912327N07142 1912 66 WP MM NOT_NAMED 1912-11-26 21:00:00 NR 14.9207 114.338 main 550 495 __________P___ -1 14.9207 114.338 2 14 292
1912327N07142 1912 66 WP MM NOT_NAMED 1912-11-27 00:00:00 NR 15.1704 113.684 main 495 426 __________P___ -1 15.1704 113.684 2 14 291
1912327N07142 1912 66 WP MM NOT_NAMED 1912-11-27 03:00:00 NR 15.4179 113.022 main 426 407 __________P___ -1 15.4179 113.022 2 14 291
1912327N07142 1912 66 WP MM NOT_NAMED 1912-11-27 04:00:00 NR 15.5000 112.800 main 407 __________O___ -1 15.5000 112.800 2 14 291

Digital Typhoon Data and Search

About IBTrACS Database

This database is a web-friendly format of International Best Track Archive for Climate Stewardship (IBTrACS), a global best track data archive curated by NOAA dating back to 1842.

Updated: 2021-10-25